createdAt,value
2023-04-14T00:03:59.727Z,48.67
2023-04-14T00:09:04.736Z,48.68
2023-04-14T00:14:07.458Z,48.93
2023-04-14T00:19:10.497Z,48.88
2023-04-14T00:24:14.632Z,49.20
2023-04-14T00:29:17.413Z,49.31
2023-04-14T00:34:20.192Z,49.22
2023-04-14T00:39:24.376Z,49.41
2023-04-14T00:44:27.888Z,49.35
2023-04-14T00:49:31.305Z,49.41
2023-04-14T00:54:35.468Z,49.48
2023-04-14T00:59:38.262Z,49.72
2023-04-14T01:04:52.856Z,49.74
2023-04-14T01:09:58.274Z,49.83
2023-04-14T01:15:06.351Z,49.93
2023-04-14T01:20:11.881Z,50.00
2023-04-14T01:25:56.132Z,50.20
2023-04-14T01:31:03.838Z,50.36
2023-04-14T01:36:11.526Z,50.27
2023-04-14T01:41:14.306Z,50.56
2023-04-14T01:46:17.132Z,50.71
2023-04-14T01:51:21.652Z,50.84
2023-04-14T01:56:24.461Z,50.72
2023-04-14T02:01:27.619Z,50.64
2023-04-14T02:06:33.308Z,50.75
2023-04-14T02:11:36.075Z,51.04
2023-04-14T02:16:39.014Z,51.06
2023-04-14T02:21:44.168Z,50.88
2023-04-14T02:26:52.191Z,51.19
2023-04-14T02:31:58.707Z,51.07
2023-04-14T02:37:09.126Z,51.09
2023-04-14T02:42:14.104Z,50.99
2023-04-14T02:47:21.055Z,51.19
2023-04-14T02:52:25.634Z,51.18
2023-04-14T02:57:30.802Z,51.29
2023-04-14T03:02:33.726Z,51.40
2023-04-14T03:07:43.615Z,51.50
2023-04-14T03:12:48.151Z,51.49
2023-04-14T03:17:55.782Z,51.46
2023-04-14T03:23:05.028Z,51.40
2023-04-14T03:28:15.868Z,51.83
2023-04-14T03:33:23.634Z,51.47
2023-04-14T03:38:28.754Z,51.35
2023-04-14T03:43:33.867Z,51.32
2023-04-14T03:48:44.123Z,51.45
2023-04-14T03:53:51.875Z,51.40
2023-04-14T03:58:55.299Z,51.48
2023-04-14T04:03:58.291Z,51.18
2023-04-14T04:09:03.014Z,51.09
2023-04-14T04:14:07.163Z,51.26
2023-04-14T04:19:13.039Z,51.28
2023-04-14T04:24:17.986Z,51.23
2023-04-14T04:29:21.719Z,51.09
2023-04-14T04:34:25.611Z,51.28
2023-04-14T04:39:31.780Z,51.34
2023-04-14T04:44:36.560Z,51.39
2023-04-14T04:49:40.331Z,51.29
2023-04-14T04:54:45.461Z,51.17
2023-04-14T04:59:48.414Z,51.04
2023-04-14T05:04:51.299Z,51.43
2023-04-14T05:09:55.510Z,51.19
2023-04-14T05:14:58.291Z,51.28
2023-04-14T05:20:02.036Z,51.03
2023-04-14T05:25:07.930Z,51.23
2023-04-14T05:30:11.767Z,51.13
2023-04-14T05:35:14.583Z,51.18
2023-04-14T05:40:20.501Z,51.14
2023-04-14T05:45:23.353Z,50.98
2023-04-14T05:50:26.332Z,51.04
2023-04-14T05:55:30.484Z,50.90
2023-04-14T06:00:33.309Z,51.10
2023-04-14T06:05:36.113Z,50.86
2023-04-14T06:10:40.299Z,51.09
2023-04-14T06:15:43.188Z,50.97
2023-04-14T06:20:46.442Z,50.82
2023-04-14T06:25:52.221Z,51.10
2023-04-14T06:30:55.413Z,50.80
2023-04-14T06:35:58.262Z,50.70
2023-04-14T06:41:02.550Z,50.70
2023-04-14T06:46:05.805Z,50.73
2023-04-14T06:51:10.825Z,50.60
2023-04-14T06:56:15.303Z,50.67
2023-04-14T07:01:18.202Z,50.47
2023-04-14T07:06:21.199Z,43.40
2023-04-14T07:11:25.307Z,40.45
2023-04-14T07:16:28.241Z,40.87
2023-04-14T07:21:31.860Z,41.65
2023-04-14T07:26:36.315Z,42.50
2023-04-14T07:31:40.168Z,43.22
2023-04-14T07:36:43.340Z,43.95
2023-04-14T07:41:47.935Z,43.56
2023-04-14T07:46:50.863Z,43.24
2023-04-14T07:51:53.806Z,43.05
2023-04-14T07:56:57.967Z,43.39
2023-04-14T08:02:01.345Z,43.14
2023-04-14T08:07:04.289Z,43.22
2023-04-14T08:12:08.799Z,43.45
2023-04-14T08:17:11.781Z,43.35
2023-04-14T08:22:14.521Z,43.49
2023-04-14T08:27:18.710Z,43.52
2023-04-14T08:32:22.243Z,43.75
2023-04-14T08:37:25.727Z,44.04
2023-04-14T08:42:30.120Z,43.87
2023-04-14T08:47:33.050Z,43.99
2023-04-14T08:52:36.483Z,44.15
2023-04-14T08:57:42.340Z,44.18
2023-04-14T09:02:45.269Z,44.24
2023-04-14T09:07:48.308Z,44.36
2023-04-14T09:12:52.672Z,44.06
2023-04-14T09:17:56.107Z,44.15
2023-04-14T09:22:58.965Z,44.19
2023-04-14T09:28:03.261Z,43.95
2023-04-14T09:33:07.308Z,44.03
2023-04-14T09:38:10.368Z,43.92
2023-04-14T09:43:27.334Z,43.97
2023-04-14T09:48:30.218Z,43.90
2023-04-14T09:53:33.897Z,43.81
2023-04-14T09:58:38.627Z,44.03
2023-04-14T10:03:42.276Z,43.79
2023-04-14T10:08:46.293Z,43.98
2023-04-14T10:13:51.254Z,44.92
2023-04-14T10:18:54.503Z,45.54
2023-04-14T10:23:58.035Z,45.55
2023-04-14T10:29:03.462Z,45.68
2023-04-14T10:34:10.810Z,45.53
2023-04-14T10:39:13.912Z,45.85
2023-04-14T10:44:29.355Z,46.22
2023-04-14T10:49:33.175Z,46.30
2023-04-14T10:54:53.209Z,46.78
2023-04-14T10:59:59.173Z,48.19
2023-04-14T11:05:06.564Z,48.46
2023-04-14T11:10:37.498Z,48.45
2023-04-14T11:15:51.984Z,48.65
2023-04-14T11:20:54.983Z,48.90
2023-04-14T11:25:58.635Z,49.16
2023-04-14T11:31:03.679Z,49.00
2023-04-14T11:36:07.706Z,48.97
2023-04-14T11:41:10.675Z,49.01
2023-04-14T11:46:15.463Z,49.09
2023-04-14T11:51:21.743Z,48.85
2023-04-14T11:56:24.808Z,48.66
2023-04-14T12:01:29.805Z,48.45
2023-04-14T12:06:36.448Z,48.37
2023-04-14T12:11:39.304Z,48.01
2023-04-14T12:16:43.608Z,47.76
2023-04-14T12:21:52.473Z,47.48
2023-04-14T12:26:56.997Z,47.57
2023-04-14T12:32:01.593Z,47.38
2023-04-14T12:37:08.293Z,47.13
2023-04-14T12:42:11.666Z,47.24
2023-04-14T12:47:15.810Z,46.96
2023-04-14T12:52:33.372Z,46.84
2023-04-14T12:57:36.559Z,46.63
2023-04-14T13:02:41.097Z,46.43
2023-04-14T13:07:44.926Z,46.33
2023-04-14T13:12:47.772Z,46.51
2023-04-14T13:17:52.116Z,46.30
2023-04-14T13:22:54.902Z,46.65
2023-04-14T13:27:57.764Z,46.29
2023-04-14T13:33:01.969Z,45.78
2023-04-14T13:38:05.588Z,46.13
2023-04-14T13:43:09.550Z,45.68
2023-04-14T13:48:13.994Z,46.05
2023-04-14T13:53:17.210Z,46.03
2023-04-14T13:58:20.070Z,46.03
2023-04-14T14:03:25.279Z,45.79
2023-04-14T14:08:30.230Z,46.22
2023-04-14T14:13:33.451Z,46.02
2023-04-14T14:18:38.309Z,45.71
2023-04-14T14:23:41.407Z,45.75
2023-04-14T14:28:47.334Z,45.98
2023-04-14T14:33:51.724Z,45.89
2023-04-14T14:38:54.518Z,45.88
2023-04-14T14:43:58.593Z,46.00
2023-04-14T14:49:03.704Z,46.33
2023-04-14T14:54:12.487Z,46.59
2023-04-14T14:59:16.242Z,46.37
2023-04-14T15:04:20.458Z,46.24
2023-04-14T15:09:23.283Z,46.40
2023-04-14T15:14:26.292Z,46.11
2023-04-14T15:19:30.476Z,46.00
2023-04-14T15:24:34.430Z,46.03
2023-04-14T15:29:37.273Z,46.08
2023-04-14T15:34:41.563Z,46.24
2023-04-14T15:39:44.395Z,46.41
2023-04-14T15:44:47.322Z,46.54
2023-04-14T15:49:52.364Z,46.50
2023-04-14T15:55:12.182Z,46.75
2023-04-14T16:00:15.988Z,46.65
2023-04-14T16:05:20.323Z,46.86
2023-04-14T16:10:23.240Z,46.95
2023-04-14T16:15:27.346Z,47.28
2023-04-14T16:20:31.752Z,47.34
2023-04-14T16:25:35.077Z,47.20
2023-04-14T16:30:38.387Z,46.84
2023-04-14T16:35:43.291Z,46.39
2023-04-14T16:40:46.382Z,46.32
2023-04-14T16:45:49.247Z,45.97
2023-04-14T16:50:53.894Z,45.39
2023-04-14T16:56:03.497Z,45.39
2023-04-14T17:01:07.291Z,45.08
2023-04-14T17:06:11.750Z,45.41
2023-04-14T17:11:15.315Z,45.16
2023-04-14T17:16:18.121Z,45.19
2023-04-14T17:21:22.281Z,44.50
2023-04-14T17:26:25.041Z,44.87
2023-04-14T17:31:28.106Z,44.41
2023-04-14T17:36:32.300Z,44.61
2023-04-14T17:41:35.431Z,44.29
2023-04-14T17:46:38.379Z,44.32
2023-04-14T17:51:42.623Z,44.15
2023-04-14T17:56:45.412Z,44.22
2023-04-14T18:01:48.375Z,44.35
2023-04-14T18:06:52.688Z,44.22
2023-04-14T18:11:56.145Z,44.27
2023-04-14T18:29:21.282Z,44.55
2023-04-14T18:34:24.146Z,44.78
2023-04-14T18:39:28.744Z,44.97
2023-04-14T18:44:31.687Z,44.98
2023-04-14T18:49:34.486Z,45.19
2023-04-14T18:54:38.879Z,45.32
2023-04-14T18:59:41.833Z,45.65
2023-04-14T19:04:44.927Z,45.66
2023-04-14T19:09:49.098Z,45.88
2023-04-14T19:14:51.834Z,45.75
2023-04-14T19:19:54.845Z,45.99
2023-04-14T19:24:59.006Z,45.86
2023-04-14T19:30:01.968Z,46.91
2023-04-14T19:35:06.448Z,46.71
2023-04-14T19:40:11.351Z,46.73
2023-04-14T19:45:14.095Z,46.65
2023-04-14T19:50:17.145Z,46.68
2023-04-14T19:55:21.314Z,46.67
2023-04-14T20:00:24.825Z,46.56
2023-04-14T20:05:27.749Z,46.91
2023-04-14T20:10:31.933Z,46.65
2023-04-14T20:15:34.786Z,46.82
2023-04-14T20:20:40.182Z,46.79
2023-04-14T20:25:45.522Z,46.73
2023-04-14T20:30:50.851Z,46.73
2023-04-14T20:35:54.141Z,46.51
2023-04-14T20:40:59.044Z,46.33
2023-04-14T20:46:02.102Z,46.53
2023-04-14T20:51:05.300Z,46.28
2023-04-14T20:56:09.446Z,46.32
2023-04-14T21:01:12.252Z,46.27
2023-04-14T21:06:16.064Z,46.52
2023-04-14T21:11:20.207Z,46.49
2023-04-14T21:16:23.088Z,46.87
2023-04-14T21:21:26.148Z,46.90
2023-04-14T21:26:30.364Z,46.86
2023-04-14T21:31:33.461Z,46.81
2023-04-14T21:36:36.720Z,47.00
2023-04-14T21:41:40.899Z,46.67
2023-04-14T21:46:43.656Z,46.64
2023-04-14T21:51:46.541Z,46.68
2023-04-14T21:56:50.673Z,46.94
2023-04-14T22:01:53.459Z,46.84
2023-04-14T22:06:57.353Z,47.00
2023-04-14T22:12:01.496Z,47.16
2023-04-14T22:17:04.484Z,47.27
2023-04-14T22:22:07.478Z,47.33
2023-04-14T22:27:11.655Z,47.19
2023-04-14T22:32:14.427Z,47.24
2023-04-14T22:37:17.166Z,46.92
2023-04-14T22:42:21.313Z,47.08
2023-04-14T22:47:24.212Z,47.35
2023-04-14T22:52:27.865Z,47.14
2023-04-14T22:57:33.120Z,47.41
2023-04-14T23:02:36.679Z,47.79
2023-04-14T23:07:39.862Z,47.42
2023-04-14T23:12:43.949Z,47.66
2023-04-14T23:17:46.951Z,47.95
2023-04-14T23:22:49.756Z,47.91
2023-04-14T23:27:53.897Z,47.73
2023-04-14T23:32:56.932Z,47.83
2023-04-14T23:38:02.307Z,47.66
2023-04-14T23:43:06.506Z,47.85
2023-04-14T23:48:09.435Z,47.78
2023-04-14T23:53:12.327Z,47.80
2023-04-14T23:58:26.161Z,47.67
